Time;durP1;ratioP1;P1;durP2;ratioP2;P2;SDS_P1;SDS_P2;PMS_P1;PMS_P2;Temp;Humidity;BMP_temperature;BMP_pressure;BME280_temperature;BME280_humidity;BME280_pressure;Samples;Min_cycle;Max_cycle;Signal;HPM_P1;HPM_P2
2021/04/14 00:03:21;;;;;;;19.93;11.27;;;1.40;99.90;;;;;;5074363;28;20956;-51
2021/04/14 00:05:48;;;;;;;22.07;11.83;;;1.60;99.90;;;;;;5074808;28;20461;-51
2021/04/14 00:15:16;;;;;;;16.90;10.13;;;1.60;99.90;;;;;;5074391;28;20417;-51
2021/04/14 00:17:42;;;;;;;18.77;10.47;;;1.60;99.90;;;;;;5074085;28;20507;-51
2021/04/14 00:20:11;;;;;;;18.20;10.97;;;1.70;99.90;;;;;;5074367;28;20467;-51
2021/04/14 00:22:37;;;;;;;18.83;10.80;;;1.70;99.90;;;;;;5074531;28;20472;-51
2021/04/14 00:25:06;;;;;;;18.00;10.30;;;1.80;99.90;;;;;;5074147;28;20450;-51
2021/04/14 00:27:36;;;;;;;17.47;10.37;;;1.80;99.90;;;;;;5073937;28;20448;-51
2021/04/14 00:30:05;;;;;;;19.20;10.80;;;1.70;99.90;;;;;;5074140;28;20526;-51
2021/04/14 00:32:36;;;;;;;18.43;10.40;;;1.70;99.90;;;;;;5074000;28;20807;-51
2021/04/14 00:35:03;;;;;;;16.67;10.00;;;1.80;99.90;;;;;;5073935;28;20925;-51
2021/04/14 00:37:32;;;;;;;18.33;10.90;;;1.80;99.90;;;;;;5073686;28;20464;-51
2021/04/14 00:39:59;;;;;;;19.90;10.80;;;1.80;99.90;;;;;;5074061;28;20454;-51
2021/04/14 00:42:25;;;;;;;19.53;10.70;;;1.70;99.90;;;;;;5072877;28;21067;-51
2021/04/14 00:44:52;;;;;;;17.50;11.00;;;1.70;99.90;;;;;;5071777;28;20962;-51
2021/04/14 00:47:18;;;;;;;17.43;10.70;;;1.70;99.90;;;;;;5073580;28;20457;-51
2021/04/14 00:49:46;;;;;;;20.40;11.07;;;1.70;99.90;;;;;;5073864;28;20453;-51
2021/04/14 00:52:13;;;;;;;18.93;10.57;;;1.70;99.90;;;;;;5073520;28;20853;-51
2021/04/14 00:54:39;;;;;;;18.37;10.60;;;1.70;99.90;;;;;;5073576;28;21107;-51
2021/04/14 00:57:06;;;;;;;18.03;11.10;;;1.70;99.90;;;;;;5073455;28;20948;-51
2021/04/14 00:59:33;;;;;;;18.13;10.60;;;1.50;99.90;;;;;;5072665;28;20536;-51
2021/04/14 01:01:59;;;;;;;21.47;11.97;;;1.50;99.90;;;;;;5073212;28;20472;-51
2021/04/14 01:04:26;;;;;;;18.53;11.47;;;1.60;99.90;;;;;;5073344;28;20448;-51
2021/04/14 01:06:53;;;;;;;18.70;10.83;;;1.60;99.90;;;;;;5073811;28;20449;-51
2021/04/14 01:09:20;;;;;;;18.73;10.33;;;1.60;99.90;;;;;;5073296;28;20445;-52
2021/04/14 01:11:46;;;;;;;18.37;10.83;;;1.70;99.90;;;;;;5072826;28;20483;-52
2021/04/14 01:14:13;;;;;;;19.43;10.70;;;1.70;99.90;;;;;;5073660;28;20449;-51
2021/04/14 01:16:39;;;;;;;18.70;11.10;;;1.70;99.90;;;;;;5073401;28;20443;-51
2021/04/14 01:19:06;;;;;;;18.67;10.40;;;1.60;99.90;;;;;;5072999;28;20506;-51
2021/04/14 01:21:36;;;;;;;23.27;11.80;;;1.40;99.90;;;;;;5072900;28;20453;-52
2021/04/14 01:24:05;;;;;;;19.87;11.43;;;1.30;99.90;;;;;;5073541;28;21047;-51
2021/04/14 01:26:31;;;;;;;20.23;10.50;;;1.40;99.90;;;;;;5073779;28;20958;-51
2021/04/14 01:28:58;;;;;;;22.00;11.83;;;1.50;99.90;;;;;;5073002;28;20866;-51
2021/04/14 01:31:32;;;;;;;18.57;10.73;;;1.50;99.90;;;;;;5073598;28;20834;-52
2021/04/14 01:34:04;;;;;;;21.57;11.67;;;1.40;99.90;;;;;;5071681;28;20507;-51
2021/04/14 01:36:31;;;;;;;20.77;11.27;;;1.40;99.90;;;;;;5072820;28;21125;-51
2021/04/14 01:38:58;;;;;;;21.00;12.00;;;1.40;99.90;;;;;;5072376;28;20481;-51
2021/04/14 01:41:25;;;;;;;20.93;11.70;;;1.40;99.90;;;;;;5072100;28;20444;-51
2021/04/14 01:43:51;;;;;;;19.83;11.37;;;1.40;99.90;;;;;;5072562;28;20447;-51
2021/04/14 01:46:18;;;;;;;22.13;12.20;;;1.20;99.90;;;;;;5072844;28;20792;-52
2021/04/14 01:48:45;;;;;;;22.10;11.87;;;1.20;99.90;;;;;;5071859;28;20453;-52
2021/04/14 01:51:13;;;;;;;26.00;12.00;;;1.20;99.90;;;;;;5072917;28;20458;-52
2021/04/14 01:53:40;;;;;;;20.27;12.10;;;1.20;99.90;;;;;;5071962;28;20476;-52
2021/04/14 01:56:08;;;;;;;20.13;12.20;;;1.20;99.90;;;;;;5072266;28;20475;-52
2021/04/14 01:58:34;;;;;;;19.50;11.83;;;1.30;99.90;;;;;;5071738;28;20489;-52
2021/04/14 02:01:04;;;;;;;21.90;12.80;;;1.10;99.90;;;;;;5072677;28;20454;-51
2021/04/14 02:03:33;;;;;;;19.23;11.77;;;0.90;99.90;;;;;;5071922;28;20467;-52
2021/04/14 02:06:00;;;;;;;26.53;11.33;;;0.90;99.90;;;;;;5072208;28;20451;-52
2021/04/14 02:08:27;;;;;;;19.87;11.83;;;1.00;99.90;;;;;;5072043;28;20447;-51
2021/04/14 02:17:40;;;;;;;20.23;11.83;;;0.80;99.90;;;;;;5071841;28;20928;-51
2021/04/14 02:20:09;;;;;;;19.73;11.17;;;0.80;99.90;;;;;;5071428;28;20981;-52
2021/04/14 02:22:36;;;;;;;22.43;11.73;;;0.90;99.90;;;;;;5071869;28;20473;-51
2021/04/14 02:25:03;;;;;;;22.20;11.70;;;1.10;99.90;;;;;;5071866;28;20452;-51
2021/04/14 02:27:32;;;;;;;19.20;11.97;;;1.00;99.90;;;;;;5071076;28;20447;-52
2021/04/14 02:29:58;;;;;;;23.27;12.00;;;0.60;99.90;;;;;;5071420;28;20454;-51
2021/04/14 02:32:25;;;;;;;21.97;12.53;;;0.60;99.90;;;;;;5071837;28;20478;-52
2021/04/14 02:34:52;;;;;;;19.33;11.27;;;0.70;99.90;;;;;;5071594;28;20977;-51
2021/04/14 02:37:19;;;;;;;20.10;12.27;;;0.70;99.90;;;;;;5071337;28;20453;-51
2021/04/14 02:39:45;;;;;;;21.87;11.93;;;0.80;99.90;;;;;;5070614;28;20478;-52
2021/04/14 02:42:12;;;;;;;22.27;11.53;;;0.80;99.90;;;;;;5071688;28;20473;-52
2021/04/14 02:44:38;;;;;;;23.27;13.03;;;0.80;99.90;;;;;;5072094;28;20453;-52
2021/04/14 02:47:05;;;;;;;19.43;11.97;;;0.80;99.90;;;;;;5071279;28;20516;-52
2021/04/14 02:49:32;;;;;;;20.30;11.60;;;0.80;99.90;;;;;;5071924;28;20454;-51
2021/04/14 02:51:59;;;;;;;17.77;11.07;;;0.80;99.90;;;;;;5071249;28;20502;-52
2021/04/14 02:54:26;;;;;;;21.63;12.23;;;0.80;99.90;;;;;;5071470;28;20449;-52
2021/04/14 02:56:52;;;;;;;24.67;13.10;;;0.80;99.90;;;;;;5070953;28;20458;-52
2021/04/14 02:59:19;;;;;;;20.60;12.47;;;0.80;99.90;;;;;;5071510;28;20478;-52
2021/04/14 03:01:46;;;;;;;23.63;12.93;;;0.80;99.90;;;;;;5071611;28;20471;-51
2021/04/14 03:04:12;;;;;;;29.10;15.40;;;0.80;99.90;;;;;;5071386;28;20448;-52
2021/04/14 03:06:39;;;;;;;22.33;12.60;;;0.80;99.90;;;;;;5071228;28;20451;-51
2021/04/14 03:09:06;;;;;;;29.23;14.20;;;0.70;99.90;;;;;;5070900;28;20456;-52
2021/04/14 03:11:33;;;;;;;25.23;14.13;;;0.70;99.90;;;;;;5056223;28;20449;-51
2021/04/14 03:14:00;;;;;;;26.87;14.87;;;0.70;99.90;;;;;;5071326;28;20448;-52
2021/04/14 03:16:26;;;;;;;25.87;14.77;;;0.60;99.90;;;;;;5054898;28;20454;-51
2021/04/14 03:18:53;;;;;;;26.20;13.60;;;0.60;99.90;;;;;;5071355;28;20493;-51
2021/04/14 03:21:20;;;;;;;27.97;14.13;;;0.60;99.90;;;;;;5071145;28;20826;-52
2021/04/14 03:23:47;;;;;;;23.63;13.33;;;0.70;99.90;;;;;;5071559;28;20455;-52
2021/04/14 03:26:14;;;;;;;23.53;13.10;;;0.70;99.90;;;;;;5070491;28;20943;-51
2021/04/14 03:28:40;;;;;;;23.80;13.23;;;0.70;99.90;;;;;;5051448;28;20436;-52
2021/04/14 03:31:08;;;;;;;26.23;13.63;;;0.70;99.90;;;;;;5059769;28;20457;-51
2021/04/14 03:33:35;;;;;;;22.47;13.13;;;0.70;99.90;;;;;;5073630;28;20467;-51
2021/04/14 03:36:02;;;;;;;23.07;13.60;;;0.60;99.90;;;;;;5074382;28;20440;-52
2021/04/14 03:38:29;;;;;;;24.03;13.93;;;0.60;99.90;;;;;;5074976;28;20490;-52
2021/04/14 03:40:55;;;;;;;24.93;14.00;;;0.70;99.90;;;;;;5075329;28;20830;-51
2021/04/14 03:43:22;;;;;;;24.57;14.17;;;0.60;99.90;;;;;;5074666;28;20476;-52
2021/04/14 03:45:52;;;;;;;25.30;14.87;;;0.40;99.90;;;;;;5074379;28;20451;-51
2021/04/14 03:48:19;;;;;;;28.30;14.00;;;0.30;99.90;;;;;;5074380;28;20448;-52
2021/04/14 03:50:45;;;;;;;29.70;16.20;;;0.30;99.90;;;;;;5074978;28;20512;-51
2021/04/14 03:53:15;;;;;;;30.00;16.30;;;0.20;99.90;;;;;;5074001;28;20939;-52
2021/04/14 03:55:42;;;;;;;28.47;15.10;;;0.10;99.90;;;;;;5074597;28;20452;-51
2021/04/14 03:58:09;;;;;;;45.30;13.97;;;0.00;99.90;;;;;;5074513;28;20475;-51
2021/04/14 04:00:37;;;;;;;25.00;13.80;;;0.10;99.90;;;;;;5074565;28;20975;-51
2021/04/14 04:03:04;;;;;;;26.20;14.43;;;0.00;99.90;;;;;;5064208;28;20463;-51
2021/04/14 04:05:31;;;;;;;27.47;15.13;;;0.00;99.90;;;;;;5074256;28;20458;-51
2021/04/14 04:07:57;;;;;;;24.27;13.90;;;-0.10;99.90;;;;;;5074131;28;20861;-51
2021/04/14 04:10:24;;;;;;;22.37;13.53;;;-0.10;99.90;;;;;;5074732;28;20932;-51
2021/04/14 04:12:50;;;;;;;32.43;14.30;;;-0.10;99.90;;;;;;5073620;28;20474;-52
2021/04/14 04:15:17;;;;;;;22.97;12.30;;;-0.20;99.90;;;;;;5073885;28;20541;-51
2021/04/14 04:17:44;;;;;;;21.90;12.03;;;-0.20;99.90;;;;;;5074108;28;20451;-51
2021/04/14 04:20:12;;;;;;;25.10;13.07;;;-0.20;99.90;;;;;;5074736;28;20442;-52
2021/04/14 04:22:39;;;;;;;18.27;12.00;;;-0.30;99.90;;;;;;5073998;28;20532;-51
2021/04/14 04:25:07;;;;;;;19.33;11.80;;;-0.50;99.90;;;;;;5074201;28;20444;-52
2021/04/14 04:27:34;;;;;;;21.83;11.87;;;-0.70;99.90;;;;;;5073794;28;20451;-52
2021/04/14 04:30:00;;;;;;;23.33;13.63;;;-0.70;99.90;;;;;;5057993;28;20967;-51
2021/04/14 04:32:30;;;;;;;24.87;12.90;;;-0.60;99.90;;;;;;5073834;28;20471;-51
2021/04/14 04:34:58;;;;;;;22.13;12.70;;;-0.70;99.90;;;;;;5073916;28;20454;-51
2021/04/14 04:37:24;;;;;;;21.17;11.83;;;-0.60;99.90;;;;;;5074033;28;20507;-51
2021/04/14 04:39:51;;;;;;;21.50;11.67;;;-0.40;99.90;;;;;;5073735;28;20474;-51
2021/04/14 04:42:17;;;;;;;19.07;11.57;;;-0.40;99.90;;;;;;5073809;28;20471;-51
2021/04/14 04:44:44;;;;;;;19.30;11.87;;;-0.30;99.90;;;;;;5072767;28;20473;-52
2021/04/14 04:47:11;;;;;;;23.30;12.03;;;-0.20;99.90;;;;;;5073931;28;20458;-51
2021/04/14 04:49:37;;;;;;;19.07;11.40;;;-0.20;99.90;;;;;;5074147;28;20501;-51
2021/04/14 04:52:05;;;;;;;21.30;11.77;;;-0.20;99.90;;;;;;5073809;28;20575;-51
2021/04/14 04:54:32;;;;;;;21.90;12.90;;;-0.10;99.90;;;;;;5073013;28;21013;-52
2021/04/14 04:56:59;;;;;;;21.13;12.10;;;0.00;99.90;;;;;;5073097;28;20448;-52
2021/04/14 04:59:25;;;;;;;34.67;17.50;;;0.10;99.90;;;;;;5073206;28;20480;-50
2021/04/14 05:01:53;;;;;;;33.03;18.60;;;0.10;99.90;;;;;;5073336;28;20474;-51
2021/04/14 05:04:20;;;;;;;26.43;14.60;;;0.10;99.90;;;;;;5072751;28;20448;-50
2021/04/14 05:06:46;;;;;;;24.47;14.87;;;0.20;99.90;;;;;;5073266;28;20455;-50
2021/04/14 05:09:14;;;;;;;23.47;13.23;;;0.40;99.90;;;;;;5072759;28;20540;-50
2021/04/14 05:11:40;;;;;;;22.60;13.33;;;0.50;99.90;;;;;;5072536;28;21002;-50
2021/04/14 05:14:07;;;;;;;32.80;17.17;;;0.60;99.90;;;;;;5095927;22;20483;-49
2021/04/14 05:16:33;;;;;;;46.00;27.37;;;0.60;99.90;;;;;;5072607;28;20950;-48
2021/04/14 05:19:00;;;;;;;28.17;18.20;;;0.70;99.90;;;;;;5071205;28;21001;-49
2021/04/14 05:21:26;;;;;;;26.97;15.83;;;0.60;99.90;;;;;;5072177;28;20452;-49
2021/04/14 05:23:53;;;;;;;27.70;14.70;;;0.60;99.90;;;;;;5064435;28;20467;-49
2021/04/14 05:26:21;;;;;;;21.60;13.33;;;0.70;99.90;;;;;;5052053;28;20466;-49
2021/04/14 05:28:47;;;;;;;22.27;13.30;;;0.80;99.90;;;;;;5048370;28;20448;-49
2021/04/14 05:31:14;;;;;;;23.20;13.27;;;1.00;99.90;;;;;;5052305;28;21060;-49
2021/04/14 05:33:40;;;;;;;24.60;14.57;;;1.30;99.90;;;;;;5053680;28;21016;-49
2021/04/14 05:36:08;;;;;;;24.20;15.50;;;1.80;99.90;;;;;;5052735;28;20944;-49
2021/04/14 05:38:34;;;;;;;26.20;14.03;;;2.60;99.90;;;;;;5051578;28;20563;-50
2021/04/14 05:41:01;;;;;;;21.27;13.33;;;3.50;99.90;;;;;;5052121;28;20508;-50
2021/04/14 05:43:30;;;;;;;20.30;11.60;;;4.30;99.90;;;;;;5057028;28;20477;-50
2021/04/14 05:45:59;;;;;;;20.03;11.80;;;5.10;99.90;;;;;;5052598;28;20941;-49
2021/04/14 05:48:27;;;;;;;18.20;11.30;;;5.80;99.90;;;;;;5052282;28;20516;-50
2021/04/14 05:50:55;;;;;;;18.50;12.47;;;6.30;99.90;;;;;;5052323;28;20447;-50
2021/04/14 05:53:21;;;;;;;19.20;13.40;;;6.80;99.90;;;;;;5042086;28;20474;-50
2021/04/14 05:55:48;;;;;;;17.20;10.97;;;7.00;99.90;;;;;;5071703;28;20817;-50
2021/04/14 05:58:14;;;;;;;17.73;11.50;;;7.20;99.90;;;;;;5055526;28;20479;-50
2021/04/14 06:00:42;;;;;;;18.33;11.10;;;7.50;99.90;;;;;;5050917;28;20439;-50
2021/04/14 06:03:08;;;;;;;16.27;10.80;;;7.90;99.90;;;;;;5037823;28;20499;-49
2021/04/14 06:05:35;;;;;;;18.10;11.10;;;8.20;99.90;;;;;;5066296;28;20455;-50
2021/04/14 06:08:01;;;;;;;16.43;10.90;;;7.60;99.90;;;;;;5050186;28;20517;-50
2021/04/14 06:10:28;;;;;;;18.70;11.83;;;7.20;99.90;;;;;;5050242;28;20452;-51
2021/04/14 06:12:55;;;;;;;18.03;10.60;;;6.60;99.90;;;;;;5050237;28;20462;-50
2021/04/14 06:15:25;;;;;;;21.63;12.03;;;7.30;99.90;;;;;;5044584;28;20480;-50
2021/04/14 06:17:53;;;;;;;22.30;11.00;;;7.80;99.90;;;;;;5045028;28;20448;-50
2021/04/14 06:20:22;;;;;;;16.97;9.80;;;8.40;99.90;;;;;;5032248;28;20491;-49
2021/04/14 06:22:49;;;;;;;17.17;10.00;;;8.90;99.90;;;;;;5032267;28;20505;-50
2021/04/14 06:25:18;;;;;;;12.17;9.33;;;9.40;99.90;;;;;;5051371;28;20470;-50
2021/04/14 06:27:49;;;;;;;13.53;9.10;;;9.00;99.90;;;;;;5051917;28;20495;-51
2021/04/14 06:30:17;;;;;;;14.57;9.90;;;9.60;99.90;;;;;;5051833;28;20447;-50
2021/04/14 06:32:43;;;;;;;15.67;10.03;;;9.90;99.90;;;;;;5052021;28;20458;-50
2021/04/14 06:35:12;;;;;;;12.90;8.63;;;10.00;99.90;;;;;;5051552;28;20783;-50
2021/04/14 06:37:41;;;;;;;13.03;8.47;;;10.00;99.90;;;;;;5051223;28;20990;-52
2021/04/14 06:40:34;;;;;;;13.73;8.97;;;10.00;99.90;;;;;;5037237;28;21006;-50
2021/04/14 06:43:10;;;;;;;10.87;8.10;;;10.30;99.90;;;;;;5052000;28;20818;-50
2021/04/14 06:45:42;;;;;;;14.83;8.37;;;9.30;99.90;;;;;;5051761;28;20454;-50
2021/04/14 06:48:23;;;;;;;11.07;7.93;;;9.20;99.90;;;;;;5051380;28;20501;-51
2021/04/14 06:50:59;;;;;;;9.70;7.00;;;9.90;99.90;;;;;;5051673;28;20489;-50
2021/04/14 06:53:37;;;;;;;10.13;7.33;;;10.70;99.90;;;;;;5051339;28;20479;-50
2021/04/14 06:56:07;;;;;;;13.90;7.63;;;10.80;99.90;;;;;;5051556;28;20446;-50
2021/04/14 06:58:41;;;;;;;10.47;6.90;;;10.80;99.50;;;;;;5051281;28;20514;-50
2021/04/14 07:01:11;;;;;;;9.60;7.60;;;10.40;98.40;;;;;;5051641;28;20452;-49
2021/04/14 07:03:47;;;;;;;11.23;8.30;;;10.30;97.70;;;;;;5051288;28;20494;-51
2021/04/14 07:06:19;;;;;;;13.50;7.70;;;10.50;99.90;;;;;;5051634;28;20447;-51
2021/04/14 07:08:56;;;;;;;10.37;7.40;;;10.60;97.50;;;;;;5036015;28;20452;-51
2021/04/14 07:11:24;;;;;;;13.13;7.30;;;10.30;97.30;;;;;;5040400;28;20453;-51
2021/04/14 07:13:50;;;;;;;10.03;7.00;;;10.20;98.30;;;;;;5054008;28;20485;-51
2021/04/14 07:16:43;;;;;;;10.70;6.97;;;10.40;98.00;;;;;;5055024;28;20454;-51
2021/04/14 07:19:20;;;;;;;10.40;6.80;;;10.10;97.20;;;;;;5054836;28;20490;-51
2021/04/14 07:21:51;;;;;;;11.23;7.60;;;9.60;99.60;;;;;;5055418;28;20453;-50
2021/04/14 07:24:24;;;;;;;9.27;7.13;;;9.90;99.90;;;;;;5035259;28;20470;-51
2021/04/14 07:26:58;;;;;;;9.67;7.07;;;10.20;98.20;;;;;;5049964;28;20450;-50
2021/04/14 07:29:32;;;;;;;9.20;7.27;;;10.50;98.90;;;;;;5054850;28;20438;-51
2021/04/14 07:32:08;;;;;;;9.87;7.40;;;10.80;99.00;;;;;;5055376;28;20443;-51
2021/04/14 07:34:51;;;;;;;12.10;8.07;;;10.30;97.90;;;;;;5054149;28;20479;-51
2021/04/14 07:37:27;;;;;;;13.10;7.70;;;9.60;99.20;;;;;;5054926;28;20861;-52
2021/04/14 07:40:02;;;;;;;10.97;7.97;;;10.60;98.60;;;;;;5054942;28;20604;-50
2021/04/14 07:42:35;;;;;;;11.97;8.00;;;11.30;97.30;;;;;;5054645;28;20951;-52
2021/04/14 07:45:17;;;;;;;9.30;7.00;;;11.80;95.30;;;;;;5054066;28;21039;-51
2021/04/14 07:47:47;;;;;;;11.50;7.53;;;12.40;94.70;;;;;;5054230;28;20964;-52
2021/04/14 07:50:14;;;;;;;11.50;8.27;;;12.30;93.30;;;;;;5046265;28;20458;-51
2021/04/14 07:52:42;;;;;;;10.37;8.27;;;11.20;94.20;;;;;;5053959;28;20456;-52
2021/04/14 07:55:21;;;;;;;11.00;8.00;;;11.50;98.60;;;;;;5054178;28;20999;-51
2021/04/14 07:57:48;;;;;;;9.23;7.40;;;11.90;95.90;;;;;;5050163;28;20447;-51
2021/04/14 08:00:18;;;;;;;9.70;7.33;;;12.10;95.50;;;;;;5053534;28;20771;-51
2021/04/14 08:02:45;;;;;;;15.13;9.50;;;12.60;95.50;;;;;;5053261;28;20455;-50
2021/04/14 08:05:24;;;;;;;13.07;8.57;;;12.10;97.10;;;;;;5053978;28;20478;-51
2021/04/14 08:07:51;;;;;;;11.73;8.27;;;10.80;97.90;;;;;;5053905;28;20451;-51
2021/04/14 08:10:20;;;;;;;12.93;9.20;;;11.60;97.10;;;;;;5034219;28;20467;-52
2021/04/14 08:13:02;;;;;;;11.63;8.97;;;12.20;95.30;;;;;;5046657;28;20461;-51
2021/04/14 08:15:34;;;;;;;10.40;8.20;;;12.90;96.20;;;;;;5053776;28;20960;-51
2021/04/14 08:18:10;;;;;;;9.33;7.60;;;13.30;94.40;;;;;;5052848;28;20452;-51
2021/04/14 08:20:37;;;;;;;10.97;8.30;;;12.30;92.70;;;;;;5053550;28;20446;-50
2021/04/14 08:23:14;;;;;;;9.70;7.67;;;11.50;94.70;;;;;;5053986;28;20439;-51
2021/04/14 08:25:48;;;;;;;13.50;8.13;;;12.70;94.40;;;;;;5050928;28;20444;-51
2021/04/14 08:28:25;;;;;;;9.57;7.37;;;13.10;94.40;;;;;;5050561;28;20447;-51
2021/04/14 08:30:51;;;;;;;9.67;7.50;;;13.10;91.00;;;;;;5053879;28;20452;-51
2021/04/14 08:33:20;;;;;;;8.90;7.80;;;13.50;88.90;;;;;;5053280;28;20455;-51
2021/04/14 08:35:50;;;;;;;10.10;7.43;;;12.80;86.80;;;;;;5053695;28;20498;-51
2021/04/14 08:38:30;;;;;;;8.20;6.13;;;12.80;92.60;;;;;;5053249;28;20454;-51
2021/04/14 08:40:59;;;;;;;9.53;6.87;;;13.50;84.40;;;;;;5053624;28;20504;-51
2021/04/14 08:43:32;;;;;;;9.00;7.20;;;14.20;83.50;;;;;;5053332;28;20470;-51
2021/04/14 08:46:10;;;;;;;10.90;7.30;;;12.60;90.60;;;;;;5053059;28;20912;-51
2021/04/14 08:48:38;;;;;;;9.20;6.57;;;12.10;91.90;;;;;;5053428;28;20443;-51
2021/04/14 08:51:05;;;;;;;9.77;6.93;;;12.10;92.90;;;;;;5053665;28;20501;-51
2021/04/14 08:53:36;;;;;;;8.03;6.60;;;13.10;86.30;;;;;;5053054;28;20471;-51
2021/04/14 08:56:03;;;;;;;9.13;6.67;;;13.60;90.60;;;;;;5051471;28;20517;-52
2021/04/14 08:58:31;;;;;;;10.30;6.37;;;14.10;87.50;;;;;;5053341;28;20456;-51
2021/04/14 09:00:59;;;;;;;9.83;6.50;;;14.90;82.80;;;;;;5052813;28;20573;-51
2021/04/14 09:03:29;;;;;;;7.90;6.10;;;13.80;85.20;;;;;;5052132;28;21063;-51
2021/04/14 09:05:56;;;;;;;7.20;5.90;;;13.80;83.70;;;;;;5052817;28;20824;-51
2021/04/14 09:08:29;;;;;;;7.20;5.77;;;14.30;83.90;;;;;;5051323;28;20464;-52
2021/04/14 09:10:59;;;;;;;6.50;5.23;;;14.70;84.30;;;;;;5053410;28;20451;-52
2021/04/14 09:13:32;;;;;;;7.67;5.50;;;13.80;85.20;;;;;;5052880;28;20537;-51
2021/04/14 09:16:01;;;;;;;6.90;5.57;;;14.10;81.10;;;;;;5053150;28;20448;-50
2021/04/14 09:18:31;;;;;;;6.03;5.13;;;13.50;81.90;;;;;;5058249;28;20447;-50
2021/04/14 09:21:13;;;;;;;9.30;6.30;;;13.60;82.60;;;;;;5073384;28;20522;-50
2021/04/14 09:23:52;;;;;;;7.47;5.30;;;13.60;81.50;;;;;;5053339;28;20509;-50
2021/04/14 09:26:28;;;;;;;6.37;5.60;;;13.70;82.50;;;;;;5053144;28;20459;-50
2021/04/14 09:28:55;;;;;;;7.00;5.90;;;13.40;87.30;;;;;;5061408;28;20554;-50
2021/04/14 09:31:39;;;;;;;9.47;5.50;;;12.00;89.90;;;;;;5071865;28;20455;-51
2021/04/14 09:34:16;;;;;;;7.40;5.90;;;12.70;88.10;;;;;;5032936;28;20861;-51
2021/04/14 09:36:48;;;;;;;9.73;5.90;;;13.20;84.20;;;;;;5033069;28;20444;-51
2021/04/14 09:39:29;;;;;;;6.77;5.80;;;13.90;82.50;;;;;;5056143;28;20474;-52
2021/04/14 09:41:57;;;;;;;6.37;5.40;;;14.60;85.00;;;;;;5067401;28;20501;-51
2021/04/14 09:44:38;;;;;;;7.23;4.97;;;15.20;82.20;;;;;;5052825;28;20525;-51
2021/04/14 09:47:16;;;;;;;5.23;4.73;;;13.80;82.20;;;;;;5052368;28;20895;-51
2021/04/14 09:49:44;;;;;;;5.77;4.47;;;12.10;85.80;;;;;;5067408;28;20447;-51
2021/04/14 09:52:26;;;;;;;7.20;5.50;;;12.00;91.30;;;;;;5064922;28;20821;-51
2021/04/14 09:54:57;;;;;;;6.97;5.33;;;12.30;93.30;;;;;;5052727;28;20543;-51
2021/04/14 09:57:32;;;;;;;6.40;4.77;;;12.80;89.40;;;;;;5052636;28;20458;-51
2021/04/14 10:00:00;;;;;;;7.73;4.50;;;12.30;88.50;;;;;;5069195;28;20527;-52
2021/04/14 10:02:29;;;;;;;6.07;4.20;;;11.70;91.10;;;;;;5063100;28;20452;-51
2021/04/14 10:04:55;;;;;;;7.40;4.80;;;11.90;89.70;;;;;;5049434;28;20525;-50
2021/04/14 10:07:27;;;;;;;5.03;4.53;;;12.30;89.30;;;;;;5052228;28;20205;-51
2021/04/14 10:10:05;;;;;;;6.00;4.63;;;12.70;86.30;;;;;;5067760;28;20443;-50
2021/04/14 10:12:35;;;;;;;5.30;4.50;;;13.50;78.70;;;;;;5062608;28;20819;-51
2021/04/14 10:15:03;;;;;;;9.33;4.63;;;12.20;84.40;;;;;;5044635;28;20479;-49
2021/04/14 10:17:31;;;;;;;6.80;4.37;;;11.00;86.00;;;;;;5051958;28;20448;-51
2021/04/14 10:20:11;;;;;;;6.60;4.63;;;9.90;88.70;;;;;;5061296;28;20484;-51
2021/04/14 10:22:42;;;;;;;5.17;4.10;;;9.90;88.80;;;;;;5051913;28;20558;-51
2021/04/14 10:25:16;;;;;;;3.90;3.40;;;9.60;90.70;;;;;;5051344;28;20513;-51
2021/04/14 10:27:44;;;;;;;5.10;3.70;;;10.40;87.90;;;;;;5040117;28;20461;-50
2021/04/14 10:30:18;;;;;;;5.33;4.07;;;11.90;83.30;;;;;;5054300;28;20456;-50
2021/04/14 10:32:45;;;;;;;4.50;3.63;;;12.30;79.50;;;;;;5051313;28;20482;-50
2021/04/14 10:35:14;;;;;;;5.40;3.80;;;12.30;78.80;;;;;;5051416;28;20478;-50
2021/04/14 10:37:43;;;;;;;4.90;3.90;;;11.70;83.00;;;;;;5051333;28;20447;-51
2021/04/14 10:40:18;;;;;;;4.60;3.37;;;12.50;77.90;;;;;;5052089;28;20475;-50
2021/04/14 10:42:46;;;;;;;4.00;3.37;;;13.20;76.60;;;;;;5050920;28;20831;-50
2021/04/14 10:45:16;;;;;;;3.87;3.40;;;13.70;83.50;;;;;;5051434;28;20851;-49
2021/04/14 10:47:44;;;;;;;3.87;3.20;;;14.10;82.10;;;;;;5051272;28;20455;-50
2021/04/14 10:50:17;;;;;;;3.50;3.20;;;13.50;84.00;;;;;;5051598;28;20451;-49
2021/04/14 10:52:46;;;;;;;3.30;2.80;;;13.30;81.00;;;;;;5051217;28;20448;-50
2021/04/14 10:55:16;;;;;;;3.40;2.60;;;12.80;79.20;;;;;;5051266;28;20537;-50
2021/04/14 10:57:44;;;;;;;4.20;2.87;;;12.60;75.30;;;;;;5050910;28;20451;-50
2021/04/14 11:00:15;;;;;;;2.87;2.43;;;12.60;78.30;;;;;;5066610;28;20486;-50
2021/04/14 11:02:43;;;;;;;3.43;2.60;;;12.20;80.10;;;;;;5071374;28;20451;-50
2021/04/14 11:05:14;;;;;;;4.37;2.67;;;11.90;78.20;;;;;;5054000;28;20942;-50
2021/04/14 11:07:43;;;;;;;2.90;2.70;;;11.70;71.80;;;;;;5061902;28;20459;-50
2021/04/14 11:10:13;;;;;;;2.60;2.40;;;11.70;71.60;;;;;;5063491;28;20486;-51
2021/04/14 11:12:44;;;;;;;3.83;2.50;;;12.00;73.90;;;;;;5051064;28;20772;-49
2021/04/14 11:15:15;;;;;;;2.40;2.20;;;12.10;73.80;;;;;;5051243;28;20479;-50
2021/04/14 11:17:45;;;;;;;2.97;2.40;;;12.10;71.80;;;;;;5065853;28;20451;-50
2021/04/14 11:20:14;;;;;;;3.87;2.57;;;12.10;72.40;;;;;;5071290;28;20493;-50
2021/04/14 11:22:42;;;;;;;4.20;2.70;;;11.70;67.80;;;;;;5045077;28;20467;-50
2021/04/14 11:25:10;;;;;;;2.43;2.23;;;11.30;69.40;;;;;;5049487;28;20482;-50
2021/04/14 11:27:37;;;;;;;2.30;2.10;;;11.00;69.30;;;;;;5031579;28;20452;-51
2021/04/14 11:30:10;;;;;;;4.03;2.10;;;10.90;69.80;;;;;;5037610;28;20514;-49
2021/04/14 11:32:37;;;;;;;4.00;2.43;;;11.30;71.40;;;;;;5077886;22;20528;-52
2021/04/14 11:35:07;;;;;;;2.40;2.20;;;11.10;67.50;;;;;;5070431;28;20451;-52
2021/04/14 11:37:45;;;;;;;2.60;2.40;;;11.20;73.00;;;;;;5070606;28;20496;-51
2021/04/14 11:40:40;;;;;;;3.40;2.10;;;11.30;68.10;;;;;;5069234;28;20486;-53
2021/04/14 11:43:23;;;;;;;2.60;2.40;;;11.60;69.70;;;;;;5060143;28;20470;-52
2021/04/14 11:45:57;;;;;;;3.00;2.30;;;11.50;69.20;;;;;;5062865;28;20533;-53
2021/04/14 11:48:33;;;;;;;2.07;1.80;;;11.70;68.80;;;;;;5058242;28;20890;-52
2021/04/14 11:51:15;;;;;;;4.13;2.30;;;11.70;67.50;;;;;;5068087;28;20472;-52
2021/04/14 11:53:52;;;;;;;2.37;2.17;;;11.10;66.10;;;;;;5052621;28;20467;-52
2021/04/14 11:56:26;;;;;;;1.93;1.83;;;10.70;68.00;;;;;;5062236;28;20834;-53
2021/04/14 11:58:54;;;;;;;3.07;2.50;;;11.40;67.20;;;;;;5072726;28;20982;-52
2021/04/14 12:01:24;;;;;;;1.93;1.73;;;11.30;66.10;;;;;;5057335;28;20451;-52
2021/04/14 12:03:51;;;;;;;5.23;2.30;;;11.00;65.90;;;;;;5054344;28;20868;-52
2021/04/14 12:06:19;;;;;;;1.90;1.70;;;10.80;65.30;;;;;;5061641;28;20454;-52
2021/04/14 12:08:46;;;;;;;2.23;2.13;;;10.80;65.90;;;;;;5070626;28;20990;-52
2021/04/14 12:11:19;;;;;;;2.57;2.00;;;11.00;65.20;;;;;;5053932;28;20828;-52
2021/04/14 12:13:46;;;;;;;2.43;2.23;;;11.00;66.00;;;;;;5069602;28;20474;-52
2021/04/14 12:16:12;;;;;;;2.30;1.90;;;11.20;64.50;;;;;;5068506;28;20447;-52
2021/04/14 12:18:39;;;;;;;3.57;1.80;;;10.70;66.20;;;;;;5066530;28;20447;-52
2021/04/14 12:21:06;;;;;;;3.50;2.70;;;10.40;69.80;;;;;;5053917;28;20448;-52
2021/04/14 12:23:33;;;;;;;1.73;1.63;;;10.10;70.60;;;;;;5060578;28;20487;-52
2021/04/14 12:26:00;;;;;;;2.10;1.90;;;10.10;68.10;;;;;;5054880;28;20450;-52
2021/04/14 12:28:26;;;;;;;1.90;1.80;;;10.50;66.70;;;;;;5053819;28;20496;-52
2021/04/14 12:30:53;;;;;;;2.70;1.80;;;10.20;65.10;;;;;;5053977;28;20443;-52
2021/04/14 12:33:19;;;;;;;1.60;1.50;;;10.30;65.50;;;;;;5056109;28;20521;-52
2021/04/14 12:35:46;;;;;;;5.10;2.10;;;10.30;66.00;;;;;;5055191;28;20447;-52
2021/04/14 12:38:13;;;;;;;1.87;1.70;;;10.00;65.50;;;;;;5060684;28;20455;-52
2021/04/14 12:40:39;;;;;;;2.17;1.90;;;10.10;66.10;;;;;;5061139;28;20540;-52
2021/04/14 12:43:06;;;;;;;1.80;1.70;;;10.30;66.60;;;;;;5066871;28;20472;-52
2021/04/14 12:45:39;;;;;;;3.40;1.77;;;10.60;64.50;;;;;;5056344;28;20454;-52
2021/04/14 12:48:09;;;;;;;2.70;2.00;;;10.60;65.50;;;;;;5053261;28;20474;-52
2021/04/14 12:50:36;;;;;;;1.80;1.70;;;10.60;64.00;;;;;;5053443;28;20490;-52
2021/04/14 12:53:05;;;;;;;1.97;1.80;;;10.60;63.80;;;;;;5056821;28;20541;-52
2021/04/14 12:55:39;;;;;;;1.80;1.70;;;10.80;64.50;;;;;;5073261;28;20450;-52
2021/04/14 12:58:08;;;;;;;1.67;1.20;;;11.10;64.80;;;;;;5073300;28;20454;-52
2021/04/14 13:00:35;;;;;;;2.10;1.60;;;10.90;59.80;;;;;;5056139;28;20479;-52
2021/04/14 13:03:06;;;;;;;2.07;1.30;;;11.20;59.30;;;;;;5063504;28;20467;-52
2021/04/14 13:05:36;;;;;;;1.60;1.50;;;11.00;57.60;;;;;;5052673;28;20450;-52
2021/04/14 13:08:09;;;;;;;1.73;1.63;;;10.80;58.20;;;;;;5060101;28;21033;-52